CheckWX is a tool to help pilots better visualize weather data.  It is not intended as a substitute for an official pre-flight weather briefing.

09:08:36 UTC

CYAS METAR
Kangirsuk Supplementary Aviation Weather Reporting
Kangirsuk, Canada
Current

12 hours ago

CYAS 202100Z 29028G38KT 15SM -SHRA BKN040 08/01 A2972 RMK SC7 LAST STFD OBS NEXT 211200UTC SLP071
Observed
Sep-20 @ 21:00 UTC
Wind
  • 290° at 28 KTS
  • Gusting to 38 KTS
Visibility
15 SM
Flight Rules
VFR
Conditions
Light Rain
Cloud Levels
  • Broken at 4,000' AGL
Temperature
C / 46°F
Dewpoint
C / 34°F
Humidity
62%
Altimeter
29.72" Hg
Pressure
1006.42 hPa
Previous

13 hours ago

CYAS 202000Z 29024G39KT 15SM -SHRA BKN037 09/01 A2969 RMK SC7 SLP061
Observed
Sep-20 @ 20:00 UTC
Wind
  • 290° at 24 KTS
  • Gusting to 39 KTS
Visibility
15 SM
Flight Rules
VFR
Conditions
Light Rain
Cloud Levels
  • Broken at 3,700' AGL
Temperature
C / 48°F
Dewpoint
C / 34°F
Humidity
58%
Altimeter
29.69" Hg
Pressure
1005.42 hPa
Previous

14 hours ago

CYAS 201900Z 29030G43KT 15SM -SHRA BKN042 09/00 A2966 RMK SC6 SLP052
Observed
Sep-20 @ 19:00 UTC
Wind
  • 290° at 30 KTS
  • Gusting to 43 KTS
Visibility
15 SM
Flight Rules
VFR
Conditions
Light Rain
Cloud Levels
  • Broken at 4,200' AGL
Temperature
C / 48°F
Dewpoint
C / 32°F
Humidity
54%
Altimeter
29.66" Hg
Pressure
1004.42 hPa